Portada
METAR-TAF:

METAR-TAF

Aeropuertos :

Caracas, Venezuela

Aeropuerto Internacional de Maiquetía Simón Bolívar

latitud: 10-36N, longitud: 066-59W, altitud: 43 m

Observación

El informe se hizo hace 36 minutos, a las 15:00 UTC
Viento 5 kt del noreste
Temperatura 32°C
Humedad 63%
Presión 1012 hPa
Visibilidad 10 km o más
Nubes dispersas a una altura de 1600 ft

METAR: SVMI 201500Z 05005KT 9999 SCT016 32/24 Q1012

Hora: 11:36 (15:36 UTC)

Pronóstico

El informe se hizo hace 5 horas y 36 minutos, a las 10:00 UTC
Pronóstico válido del 20 a las 12 UTC al 21 a las 12 UTC
Viento kt del norte
Visibilidad 10 km o más
Escasas nubes a una altura de 1600 ft
Evolucionando progresivamente
del 20 a las 15 UTC al 20 a las 20 UTC
Viento 10 kt del noreste
Nubes dispersas a una altura de 1600 ft

TAF: SVMI 201000Z 2012/2112 00000KT 9999 FEW016 TX33/18Z TN24/08Z BECMG 2015/2020 05010KT SCT016

Observaciones y pronósticos meteorológicos de más de 4000 aeropuertos (mensajes METAR y TAF).

Los puntos amarillos y rojos representan las estaciones disponibles.

Ponga el ratón en el punto deseado para ver el nombre de la estación.

Haga clic para ver las observaciones y los pronósticos meteorológicos.

Para cambiar el mapa : haga clic en los botones verdes con una cruz de color negro para hacer un zoom, en el botón verde con un guión para alejar o en las flechas verdes para mapas adyacentes.


METAR-TAF: